Lancaster, PA

5:06 PM EST on February 07, 2016 (GMT -0500)
Paradise | | Change Station
CLOSE
Current Station
Personal Weather Station
Location: Paradise, PA
Elevation: 365 ft
Nearby Weather Stations

Elev 365 ft 40.01 °N, 76.14 °W | Updated 2 minutes ago

Mostly Cloudy
Mostly Cloudy
42.6 °F
Feels Like 43 °F
N
0.0
Wind Variable Wind from NNW
Gusts 0.0 mph

Today
High -- | Low -- °F
--% Chance of Precip.
Yesterday
High -- | Low -- °F
Precip. -- in
Pressure 30.00 in
Visibility 10.0 miles
Clouds Clear
Windchill 43 °F
Dew Point 25 °F
Humidity 50%
Rainfall 0.00 in
Snow Depth Not available.
7:07 AM 5:30 PM
Waning Crescent, 1% visible
METAR KLNS 072153Z 29004KT 10SM CLR 04/M04 A2999 RMK AO2 SLP159 T00441044
Pressure 30.00 in
Visibility 10.0 miles
Clouds Clear
Windchill 43 °F
Dew Point 25 °F
Humidity 50%
Rainfall 0.00 in
Snow Depth Not available.
7:07 AM 5:30 PM
Waning Crescent, 1% visible
METAR KLNS 072153Z 29004KT 10SM CLR 04/M04 A2999 RMK AO2 SLP159 T00441044

10-Day Weather Forecast

Almanac

Astronomy

Feb. 07, 2016 Rise Set
Actual Time
Civil Twilight
Nautical Twilight
Astronomical Twilight
Moon
Length of Visible Light
Length of Day
Tomorrow will be .
, % of the Moon is Illuminated

Today's Extremes

State Highs State Lows

Community

WunderPhotos

Upload Photos

1,891,304 photos uploaded!

WunderBlog® & News

Nearby

Air Quality

  Air Quality AQ Index Pollutant
Not available.

Snow Depth

Station Depth Elevation

Earthquake Activity

City Distance Mag. Time & Date
Minimum magnitude displayed is 2.5.

Coastal Water Temperatures

Place Temperature

Stations

Nearby Weather Stations

Station Location Temp. Windchill Dew Point Humidity Wind Precip. Elev Updated Type
                   

Watches & Warnings

There are currently no watches in effect.